Weiser, Idaho
Current Conditions -  °F | °C
As of 12:53 AM on Sunday 26 Oct 2014 (Local Time) from KONO Reporting Station
Clear Clear  
Wind Chill: 56°   Ceiling: Unl
Heat Index: 56°   Visibility: 10mi
Dew Point: 40°   Wind: 17mph
Humidity: 55%   Direction: 240°WSW
Pressure: 29.89"   Gusts: NA
Location:  44.25°N, 116.97°W
Report Text: KONO 260653Z AUTO 24015KT 10SM CLR 13/04 A2989 RMK AO2 SLP124 T01330044 401720050
Loading
Personal Weather Stations






























Interactive Weather Map
Tropical Storm Tracking
New forecast layout! Learn more

10-Day Weather Forecast

Advertisements
Track Severe Weather on mobile